sensor_id;sensor_type;location;lat;lon;timestamp;temperature;humidity
30572;DHT22;17348;50.948;10.696;2023-05-18T00:02:53;6.90;99.90
30572;DHT22;17348;50.948;10.696;2023-05-18T00:05:57;6.90;99.90
30572;DHT22;17348;50.948;10.696;2023-05-18T00:09:05;6.80;99.90
30572;DHT22;17348;50.948;10.696;2023-05-18T00:12:08;6.80;99.90
30572;DHT22;17348;50.948;10.696;2023-05-18T00:15:10;6.70;99.90
30572;DHT22;17348;50.948;10.696;2023-05-18T00:18:13;6.70;99.90
30572;DHT22;17348;50.948;10.696;2023-05-18T00:21:15;6.60;99.90
30572;DHT22;17348;50.948;10.696;2023-05-18T00:24:19;6.60;99.90
30572;DHT22;17348;50.948;10.696;2023-05-18T00:27:21;6.60;99.90
30572;DHT22;17348;50.948;10.696;2023-05-18T00:30:23;6.60;99.90
30572;DHT22;17348;50.948;10.696;2023-05-18T00:33:26;6.50;99.90
30572;DHT22;17348;50.948;10.696;2023-05-18T00:36:28;6.50;99.90
30572;DHT22;17348;50.948;10.696;2023-05-18T00:39:35;6.40;99.90
30572;DHT22;17348;50.948;10.696;2023-05-18T00:42:37;6.40;99.90
30572;DHT22;17348;50.948;10.696;2023-05-18T00:45:39;6.30;99.90
30572;DHT22;17348;50.948;10.696;2023-05-18T00:48:42;6.30;99.90
30572;DHT22;17348;50.948;10.696;2023-05-18T00:51:45;6.20;99.90
30572;DHT22;17348;50.948;10.696;2023-05-18T00:54:49;6.20;99.90
30572;DHT22;17348;50.948;10.696;2023-05-18T00:57:53;6.10;99.90
30572;DHT22;17348;50.948;10.696;2023-05-18T01:00:56;6.10;99.90
30572;DHT22;17348;50.948;10.696;2023-05-18T01:03:59;6.10;99.90
30572;DHT22;17348;50.948;10.696;2023-05-18T01:07:02;6.10;99.90
30572;DHT22;17348;50.948;10.696;2023-05-18T01:10:08;6.00;99.90
30572;DHT22;17348;50.948;10.696;2023-05-18T01:13:17;6.00;99.90
30572;DHT22;17348;50.948;10.696;2023-05-18T01:16:25;6.00;99.90
30572;DHT22;17348;50.948;10.696;2023-05-18T01:26:40;5.80;99.90
30572;DHT22;17348;50.948;10.696;2023-05-18T01:29:45;5.80;99.90
30572;DHT22;17348;50.948;10.696;2023-05-18T01:32:49;5.70;99.90
30572;DHT22;17348;50.948;10.696;2023-05-18T01:35:52;5.70;99.90
30572;DHT22;17348;50.948;10.696;2023-05-18T01:38:55;5.60;99.90
30572;DHT22;17348;50.948;10.696;2023-05-18T01:42:07;5.60;99.90
30572;DHT22;17348;50.948;10.696;2023-05-18T01:45:16;5.50;99.90
30572;DHT22;17348;50.948;10.696;2023-05-18T01:48:21;5.50;99.90
30572;DHT22;17348;50.948;10.696;2023-05-18T01:51:28;5.40;99.90
30572;DHT22;17348;50.948;10.696;2023-05-18T01:54:33;5.40;99.90
30572;DHT22;17348;50.948;10.696;2023-05-18T01:57:40;5.40;99.90
30572;DHT22;17348;50.948;10.696;2023-05-18T02:00:44;5.30;99.90
30572;DHT22;17348;50.948;10.696;2023-05-18T02:03:47;5.30;99.90
30572;DHT22;17348;50.948;10.696;2023-05-18T02:06:49;5.30;99.90
30572;DHT22;17348;50.948;10.696;2023-05-18T02:09:54;5.20;99.90
30572;DHT22;17348;50.948;10.696;2023-05-18T02:12:57;5.20;99.90
30572;DHT22;17348;50.948;10.696;2023-05-18T02:16:02;5.20;99.90
30572;DHT22;17348;50.948;10.696;2023-05-18T02:19:04;5.10;99.90
30572;DHT22;17348;50.948;10.696;2023-05-18T02:22:07;5.10;99.90
30572;DHT22;17348;50.948;10.696;2023-05-18T02:25:09;5.20;99.90
30572;DHT22;17348;50.948;10.696;2023-05-18T02:28:13;5.10;99.90
30572;DHT22;17348;50.948;10.696;2023-05-18T02:31:15;5.10;99.90
30572;DHT22;17348;50.948;10.696;2023-05-18T02:34:18;5.10;99.90
30572;DHT22;17348;50.948;10.696;2023-05-18T02:37:21;5.10;99.90
30572;DHT22;17348;50.948;10.696;2023-05-18T02:40:24;5.10;99.90
30572;DHT22;17348;50.948;10.696;2023-05-18T02:43:28;5.00;99.90
30572;DHT22;17348;50.948;10.696;2023-05-18T02:46:30;5.00;99.90
30572;DHT22;17348;50.948;10.696;2023-05-18T02:49:33;5.00;99.90
30572;DHT22;17348;50.948;10.696;2023-05-18T02:52:35;4.90;99.90
30572;DHT22;17348;50.948;10.696;2023-05-18T02:55:37;4.90;99.90
30572;DHT22;17348;50.948;10.696;2023-05-18T02:58:42;4.90;99.90
30572;DHT22;17348;50.948;10.696;2023-05-18T03:01:44;4.90;99.90
30572;DHT22;17348;50.948;10.696;2023-05-18T03:04:47;4.80;99.90
30572;DHT22;17348;50.948;10.696;2023-05-18T03:07:53;4.80;99.90
30572;DHT22;17348;50.948;10.696;2023-05-18T03:10:56;4.80;99.90
30572;DHT22;17348;50.948;10.696;2023-05-18T03:14:00;4.70;99.90
30572;DHT22;17348;50.948;10.696;2023-05-18T03:17:02;4.70;99.90
30572;DHT22;17348;50.948;10.696;2023-05-18T03:20:07;4.70;99.90
30572;DHT22;17348;50.948;10.696;2023-05-18T03:23:10;4.70;99.90
30572;DHT22;17348;50.948;10.696;2023-05-18T03:26:13;4.70;99.90
30572;DHT22;17348;50.948;10.696;2023-05-18T03:29:17;4.70;99.90
30572;DHT22;17348;50.948;10.696;2023-05-18T03:32:20;4.70;99.90
30572;DHT22;17348;50.948;10.696;2023-05-18T03:35:23;4.70;99.90
30572;DHT22;17348;50.948;10.696;2023-05-18T03:38:25;4.70;99.90
30572;DHT22;17348;50.948;10.696;2023-05-18T03:41:28;4.70;99.90
30572;DHT22;17348;50.948;10.696;2023-05-18T03:44:33;4.70;99.90
30572;DHT22;17348;50.948;10.696;2023-05-18T03:47:35;4.70;99.90
30572;DHT22;17348;50.948;10.696;2023-05-18T03:50:38;4.80;99.90
30572;DHT22;17348;50.948;10.696;2023-05-18T03:53:40;4.80;99.90
30572;DHT22;17348;50.948;10.696;2023-05-18T03:56:43;4.80;99.90
30572;DHT22;17348;50.948;10.696;2023-05-18T03:59:46;4.80;99.90
30572;DHT22;17348;50.948;10.696;2023-05-18T04:02:49;4.80;99.90
30572;DHT22;17348;50.948;10.696;2023-05-18T04:05:52;4.80;99.90
30572;DHT22;17348;50.948;10.696;2023-05-18T04:08:55;4.80;99.90
30572;DHT22;17348;50.948;10.696;2023-05-18T04:12:02;4.90;99.90
30572;DHT22;17348;50.948;10.696;2023-05-18T04:15:07;5.00;99.90
30572;DHT22;17348;50.948;10.696;2023-05-18T04:18:12;5.00;99.90
30572;DHT22;17348;50.948;10.696;2023-05-18T04:21:14;5.00;99.90
30572;DHT22;17348;50.948;10.696;2023-05-18T04:24:17;5.20;99.90
30572;DHT22;17348;50.948;10.696;2023-05-18T04:27:21;5.30;99.90
30572;DHT22;17348;50.948;10.696;2023-05-18T04:30:26;5.30;99.90
30572;DHT22;17348;50.948;10.696;2023-05-18T04:33:29;5.40;99.90
30572;DHT22;17348;50.948;10.696;2023-05-18T04:36:32;5.60;99.90
30572;DHT22;17348;50.948;10.696;2023-05-18T04:39:35;6.00;99.90
30572;DHT22;17348;50.948;10.696;2023-05-18T04:42:39;6.60;99.90
30572;DHT22;17348;50.948;10.696;2023-05-18T04:45:46;7.10;99.90
30572;DHT22;17348;50.948;10.696;2023-05-18T04:48:50;7.20;99.90
30572;DHT22;17348;50.948;10.696;2023-05-18T04:51:54;7.40;99.90
30572;DHT22;17348;50.948;10.696;2023-05-18T04:54:56;7.40;99.90
30572;DHT22;17348;50.948;10.696;2023-05-18T04:57:59;7.50;99.90
30572;DHT22;17348;50.948;10.696;2023-05-18T05:01:02;7.50;99.90
30572;DHT22;17348;50.948;10.696;2023-05-18T05:04:06;7.70;99.90
30572;DHT22;17348;50.948;10.696;2023-05-18T05:07:09;7.70;99.90
30572;DHT22;17348;50.948;10.696;2023-05-18T05:10:11;7.70;99.90
30572;DHT22;17348;50.948;10.696;2023-05-18T05:13:13;7.70;99.90
30572;DHT22;17348;50.948;10.696;2023-05-18T05:16:17;7.70;99.90
30572;DHT22;17348;50.948;10.696;2023-05-18T05:19:19;7.70;99.90
30572;DHT22;17348;50.948;10.696;2023-05-18T05:22:22;7.80;99.90
30572;DHT22;17348;50.948;10.696;2023-05-18T05:25:24;7.80;99.90
30572;DHT22;17348;50.948;10.696;2023-05-18T05:28:26;8.00;99.90
30572;DHT22;17348;50.948;10.696;2023-05-18T05:31:30;8.10;99.90
30572;DHT22;17348;50.948;10.696;2023-05-18T05:34:34;8.30;99.90
30572;DHT22;17348;50.948;10.696;2023-05-18T05:37:37;8.50;99.90
30572;DHT22;17348;50.948;10.696;2023-05-18T05:40:39;8.60;99.90
30572;DHT22;17348;50.948;10.696;2023-05-18T05:43:42;8.70;99.90
30572;DHT22;17348;50.948;10.696;2023-05-18T05:46:46;8.80;99.90
30572;DHT22;17348;50.948;10.696;2023-05-18T05:49:48;8.90;99.90
30572;DHT22;17348;50.948;10.696;2023-05-18T05:52:50;9.00;99.90
30572;DHT22;17348;50.948;10.696;2023-05-18T05:55:52;9.10;99.90
30572;DHT22;17348;50.948;10.696;2023-05-18T05:58:55;9.30;99.90
30572;DHT22;17348;50.948;10.696;2023-05-18T06:01:58;9.40;99.90
30572;DHT22;17348;50.948;10.696;2023-05-18T06:05:01;9.40;99.90
30572;DHT22;17348;50.948;10.696;2023-05-18T06:08:04;9.60;99.90
30572;DHT22;17348;50.948;10.696;2023-05-18T06:11:06;9.70;99.90
30572;DHT22;17348;50.948;10.696;2023-05-18T06:14:08;9.90;99.90
30572;DHT22;17348;50.948;10.696;2023-05-18T06:17:12;10.10;99.90
30572;DHT22;17348;50.948;10.696;2023-05-18T06:20:15;10.20;99.90
30572;DHT22;17348;50.948;10.696;2023-05-18T06:23:17;10.30;99.90
30572;DHT22;17348;50.948;10.696;2023-05-18T06:26:22;10.40;99.90
30572;DHT22;17348;50.948;10.696;2023-05-18T06:29:27;10.40;99.90
30572;DHT22;17348;50.948;10.696;2023-05-18T06:32:32;10.50;99.90
30572;DHT22;17348;50.948;10.696;2023-05-18T06:35:34;10.60;99.90
30572;DHT22;17348;50.948;10.696;2023-05-18T06:38:36;10.50;99.90
30572;DHT22;17348;50.948;10.696;2023-05-18T06:41:39;10.60;99.90
30572;DHT22;17348;50.948;10.696;2023-05-18T06:44:41;10.70;99.90
30572;DHT22;17348;50.948;10.696;2023-05-18T06:47:46;11.10;99.90
30572;DHT22;17348;50.948;10.696;2023-05-18T06:50:48;11.20;99.90
30572;DHT22;17348;50.948;10.696;2023-05-18T06:53:50;11.20;99.90
30572;DHT22;17348;50.948;10.696;2023-05-18T06:56:53;11.00;99.90
30572;DHT22;17348;50.948;10.696;2023-05-18T06:59:55;11.60;99.90
30572;DHT22;17348;50.948;10.696;2023-05-18T07:02:59;11.90;99.90
30572;DHT22;17348;50.948;10.696;2023-05-18T07:06:03;12.00;99.90
30572;DHT22;17348;50.948;10.696;2023-05-18T07:09:06;12.00;99.90
30572;DHT22;17348;50.948;10.696;2023-05-18T07:12:09;11.90;99.90
30572;DHT22;17348;50.948;10.696;2023-05-18T07:15:11;12.60;99.90
30572;DHT22;17348;50.948;10.696;2023-05-18T07:18:15;12.70;99.90
30572;DHT22;17348;50.948;10.696;2023-05-18T07:21:17;13.10;99.90
30572;DHT22;17348;50.948;10.696;2023-05-18T07:24:20;13.20;99.90
30572;DHT22;17348;50.948;10.696;2023-05-18T07:27:22;12.90;99.90
30572;DHT22;17348;50.948;10.696;2023-05-18T07:30:24;12.40;99.90
30572;DHT22;17348;50.948;10.696;2023-05-18T07:33:28;12.20;99.90
30572;DHT22;17348;50.948;10.696;2023-05-18T07:36:31;12.20;99.90
30572;DHT22;17348;50.948;10.696;2023-05-18T07:39:33;12.10;99.90
30572;DHT22;17348;50.948;10.696;2023-05-18T07:42:37;12.30;99.90
30572;DHT22;17348;50.948;10.696;2023-05-18T07:45:39;13.00;99.90
30572;DHT22;17348;50.948;10.696;2023-05-18T07:48:43;12.50;99.90
30572;DHT22;17348;50.948;10.696;2023-05-18T07:51:46;12.20;99.90
30572;DHT22;17348;50.948;10.696;2023-05-18T07:54:48;12.10;99.90
30572;DHT22;17348;50.948;10.696;2023-05-18T07:57:50;12.00;99.90
30572;DHT22;17348;50.948;10.696;2023-05-18T08:00:53;12.00;99.90
30572;DHT22;17348;50.948;10.696;2023-05-18T08:03:57;11.90;99.90
30572;DHT22;17348;50.948;10.696;2023-05-18T08:07:01;11.90;99.90
30572;DHT22;17348;50.948;10.696;2023-05-18T08:10:05;11.80;99.90
30572;DHT22;17348;50.948;10.696;2023-05-18T08:13:08;11.90;99.90
30572;DHT22;17348;50.948;10.696;2023-05-18T08:16:10;11.90;99.90
30572;DHT22;17348;50.948;10.696;2023-05-18T08:19:14;12.20;99.90
30572;DHT22;17348;50.948;10.696;2023-05-18T08:22:16;12.50;99.90
30572;DHT22;17348;50.948;10.696;2023-05-18T08:25:19;12.60;99.90
30572;DHT22;17348;50.948;10.696;2023-05-18T08:28:23;12.70;99.90
30572;DHT22;17348;50.948;10.696;2023-05-18T08:31:26;12.70;99.90
30572;DHT22;17348;50.948;10.696;2023-05-18T08:34:29;12.80;99.90
30572;DHT22;17348;50.948;10.696;2023-05-18T08:37:32;12.80;99.90
30572;DHT22;17348;50.948;10.696;2023-05-18T08:40:41;12.80;99.90
30572;DHT22;17348;50.948;10.696;2023-05-18T08:43:45;12.90;99.90
30572;DHT22;17348;50.948;10.696;2023-05-18T08:46:50;13.00;99.90
30572;DHT22;17348;50.948;10.696;2023-05-18T08:49:55;13.10;99.90
30572;DHT22;17348;50.948;10.696;2023-05-18T08:53:00;13.10;99.90
30572;DHT22;17348;50.948;10.696;2023-05-18T08:56:03;13.10;99.90
30572;DHT22;17348;50.948;10.696;2023-05-18T08:59:06;13.30;99.90
30572;DHT22;17348;50.948;10.696;2023-05-18T09:02:10;13.20;99.90
30572;DHT22;17348;50.948;10.696;2023-05-18T09:05:14;13.20;99.90
30572;DHT22;17348;50.948;10.696;2023-05-18T09:08:17;13.10;99.90
30572;DHT22;17348;50.948;10.696;2023-05-18T09:11:21;13.10;99.90
30572;DHT22;17348;50.948;10.696;2023-05-18T09:14:23;13.20;99.90
30572;DHT22;17348;50.948;10.696;2023-05-18T09:17:26;13.40;99.90
30572;DHT22;17348;50.948;10.696;2023-05-18T09:20:30;13.50;99.90
30572;DHT22;17348;50.948;10.696;2023-05-18T09:23:33;13.40;99.90
30572;DHT22;17348;50.948;10.696;2023-05-18T09:26:35;13.50;99.90
30572;DHT22;17348;50.948;10.696;2023-05-18T09:29:50;13.70;99.90
30572;DHT22;17348;50.948;10.696;2023-05-18T09:32:54;13.90;99.90
30572;DHT22;17348;50.948;10.696;2023-05-18T09:35:58;14.00;99.90
30572;DHT22;17348;50.948;10.696;2023-05-18T09:39:06;14.30;99.90
30572;DHT22;17348;50.948;10.696;2023-05-18T09:42:09;14.40;99.90
30572;DHT22;17348;50.948;10.696;2023-05-18T09:45:16;14.60;99.90
30572;DHT22;17348;50.948;10.696;2023-05-18T09:48:19;14.80;99.90
30572;DHT22;17348;50.948;10.696;2023-05-18T09:51:25;15.00;99.90
30572;DHT22;17348;50.948;10.696;2023-05-18T09:54:28;15.30;99.90
30572;DHT22;17348;50.948;10.696;2023-05-18T09:57:30;15.60;99.90
30572;DHT22;17348;50.948;10.696;2023-05-18T10:00:36;15.80;99.90
30572;DHT22;17348;50.948;10.696;2023-05-18T10:03:39;15.70;99.90
30572;DHT22;17348;50.948;10.696;2023-05-18T10:06:48;15.60;99.90
30572;DHT22;17348;50.948;10.696;2023-05-18T10:10:00;15.60;99.90
30572;DHT22;17348;50.948;10.696;2023-05-18T10:13:03;15.60;99.90
30572;DHT22;17348;50.948;10.696;2023-05-18T10:16:07;15.70;99.90
30572;DHT22;17348;50.948;10.696;2023-05-18T10:19:10;15.80;99.90
30572;DHT22;17348;50.948;10.696;2023-05-18T10:22:16;15.80;99.90
30572;DHT22;17348;50.948;10.696;2023-05-18T10:25:21;15.90;99.90
30572;DHT22;17348;50.948;10.696;2023-05-18T10:28:26;15.90;99.90
30572;DHT22;17348;50.948;10.696;2023-05-18T10:31:30;15.90;99.90
30572;DHT22;17348;50.948;10.696;2023-05-18T10:34:34;15.90;99.90
30572;DHT22;17348;50.948;10.696;2023-05-18T10:37:41;15.90;99.90
30572;DHT22;17348;50.948;10.696;2023-05-18T10:40:46;15.90;99.90
30572;DHT22;17348;50.948;10.696;2023-05-18T10:43:49;15.80;99.90
30572;DHT22;17348;50.948;10.696;2023-05-18T10:46:53;15.70;99.90
30572;DHT22;17348;50.948;10.696;2023-05-18T10:49:58;15.70;99.90
30572;DHT22;17348;50.948;10.696;2023-05-18T10:53:02;15.60;99.90
30572;DHT22;17348;50.948;10.696;2023-05-18T10:56:06;15.60;99.90
30572;DHT22;17348;50.948;10.696;2023-05-18T10:59:09;15.80;99.90
30572;DHT22;17348;50.948;10.696;2023-05-18T11:02:13;16.10;99.90
30572;DHT22;17348;50.948;10.696;2023-05-18T11:05:23;16.30;99.90
30572;DHT22;17348;50.948;10.696;2023-05-18T11:08:27;16.50;99.90
30572;DHT22;17348;50.948;10.696;2023-05-18T11:11:49;16.70;99.90
30572;DHT22;17348;50.948;10.696;2023-05-18T11:14:53;16.70;99.90
30572;DHT22;17348;50.948;10.696;2023-05-18T11:18:12;16.70;99.90
30572;DHT22;17348;50.948;10.696;2023-05-18T11:24:50;16.60;99.20
30572;DHT22;17348;50.948;10.696;2023-05-18T11:27:54;16.70;99.60
30572;DHT22;17348;50.948;10.696;2023-05-18T11:30:57;16.90;99.40
30572;DHT22;17348;50.948;10.696;2023-05-18T11:33:59;16.90;98.50
30572;DHT22;17348;50.948;10.696;2023-05-18T11:37:46;16.90;98.50
30572;DHT22;17348;50.948;10.696;2023-05-18T11:40:50;17.00;98.00
30572;DHT22;17348;50.948;10.696;2023-05-18T11:44:16;17.10;98.50
30572;DHT22;17348;50.948;10.696;2023-05-18T11:47:19;17.30;96.90
30572;DHT22;17348;50.948;10.696;2023-05-18T11:50:26;17.30;98.80
30572;DHT22;17348;50.948;10.696;2023-05-18T11:53:31;17.10;98.60
30572;DHT22;17348;50.948;10.696;2023-05-18T11:56:35;16.80;99.10
30572;DHT22;17348;50.948;10.696;2023-05-18T11:59:39;16.50;99.10
30572;DHT22;17348;50.948;10.696;2023-05-18T12:02:43;16.30;99.10
30572;DHT22;17348;50.948;10.696;2023-05-18T12:05:46;16.20;99.30
30572;DHT22;17348;50.948;10.696;2023-05-18T12:08:49;16.20;99.20
30572;DHT22;17348;50.948;10.696;2023-05-18T12:11:54;16.20;98.00
30572;DHT22;17348;50.948;10.696;2023-05-18T12:14:58;16.10;98.80
30572;DHT22;17348;50.948;10.696;2023-05-18T12:18:00;15.80;99.50
30572;DHT22;17348;50.948;10.696;2023-05-18T12:21:03;15.60;99.30
30572;DHT22;17348;50.948;10.696;2023-05-18T12:24:06;15.80;99.90
30572;DHT22;17348;50.948;10.696;2023-05-18T12:27:11;15.90;99.50
30572;DHT22;17348;50.948;10.696;2023-05-18T12:30:16;15.90;99.20
30572;DHT22;17348;50.948;10.696;2023-05-18T12:33:20;16.10;99.90
30572;DHT22;17348;50.948;10.696;2023-05-18T12:36:22;16.20;99.30
30572;DHT22;17348;50.948;10.696;2023-05-18T12:39:25;16.10;99.00
30572;DHT22;17348;50.948;10.696;2023-05-18T12:42:29;16.00;98.90
30572;DHT22;17348;50.948;10.696;2023-05-18T12:45:32;16.10;98.90
30572;DHT22;17348;50.948;10.696;2023-05-18T12:48:36;16.10;98.40
30572;DHT22;17348;50.948;10.696;2023-05-18T12:51:39;16.30;98.30
30572;DHT22;17348;50.948;10.696;2023-05-18T12:54:48;16.50;98.20
30572;DHT22;17348;50.948;10.696;2023-05-18T12:58:00;16.70;97.90
30572;DHT22;17348;50.948;10.696;2023-05-18T13:01:06;16.90;97.70
30572;DHT22;17348;50.948;10.696;2023-05-18T13:04:10;17.00;97.80
30572;DHT22;17348;50.948;10.696;2023-05-18T13:07:12;17.20;98.20
30572;DHT22;17348;50.948;10.696;2023-05-18T13:10:16;17.10;97.50
30572;DHT22;17348;50.948;10.696;2023-05-18T13:13:21;17.20;96.80
30572;DHT22;17348;50.948;10.696;2023-05-18T13:16:23;17.30;96.60
30572;DHT22;17348;50.948;10.696;2023-05-18T13:19:25;17.30;95.80
30572;DHT22;17348;50.948;10.696;2023-05-18T13:22:28;17.50;96.00
30572;DHT22;17348;50.948;10.696;2023-05-18T13:25:30;17.30;96.90
30572;DHT22;17348;50.948;10.696;2023-05-18T13:28:34;17.40;96.20
30572;DHT22;17348;50.948;10.696;2023-05-18T13:31:37;17.40;96.50
30572;DHT22;17348;50.948;10.696;2023-05-18T13:34:39;17.10;96.40
30572;DHT22;17348;50.948;10.696;2023-05-18T13:37:43;16.70;95.50
30572;DHT22;17348;50.948;10.696;2023-05-18T13:40:46;16.70;96.10
30572;DHT22;17348;50.948;10.696;2023-05-18T13:43:50;16.90;96.60
30572;DHT22;17348;50.948;10.696;2023-05-18T13:46:52;17.00;97.00
30572;DHT22;17348;50.948;10.696;2023-05-18T13:49:55;16.80;96.60
30572;DHT22;17348;50.948;10.696;2023-05-18T13:52:57;16.80;96.20
30572;DHT22;17348;50.948;10.696;2023-05-18T13:56:00;16.80;95.90
30572;DHT22;17348;50.948;10.696;2023-05-18T13:59:03;16.90;96.10
30572;DHT22;17348;50.948;10.696;2023-05-18T14:02:06;17.00;96.30
30572;DHT22;17348;50.948;10.696;2023-05-18T14:05:09;17.20;96.70
30572;DHT22;17348;50.948;10.696;2023-05-18T14:08:12;17.20;96.10
30572;DHT22;17348;50.948;10.696;2023-05-18T14:11:14;17.00;95.70
30572;DHT22;17348;50.948;10.696;2023-05-18T14:14:18;16.90;96.60
30572;DHT22;17348;50.948;10.696;2023-05-18T14:17:20;16.80;96.70
30572;DHT22;17348;50.948;10.696;2023-05-18T14:20:23;16.70;96.50
30572;DHT22;17348;50.948;10.696;2023-05-18T14:23:25;16.80;96.40
30572;DHT22;17348;50.948;10.696;2023-05-18T14:26:27;16.80;95.30
30572;DHT22;17348;50.948;10.696;2023-05-18T14:29:31;16.80;96.20
30572;DHT22;17348;50.948;10.696;2023-05-18T14:32:34;16.80;96.90
30572;DHT22;17348;50.948;10.696;2023-05-18T14:35:36;17.00;96.70
30572;DHT22;17348;50.948;10.696;2023-05-18T14:38:40;17.00;96.00
30572;DHT22;17348;50.948;10.696;2023-05-18T14:41:43;16.80;96.50
30572;DHT22;17348;50.948;10.696;2023-05-18T14:44:47;16.60;96.30
30572;DHT22;17348;50.948;10.696;2023-05-18T14:47:49;16.60;96.60
30572;DHT22;17348;50.948;10.696;2023-05-18T14:50:52;16.70;96.80
30572;DHT22;17348;50.948;10.696;2023-05-18T14:53:54;16.80;97.00
30572;DHT22;17348;50.948;10.696;2023-05-18T14:56:57;17.10;96.90
30572;DHT22;17348;50.948;10.696;2023-05-18T15:00:01;17.10;97.20
30572;DHT22;17348;50.948;10.696;2023-05-18T15:03:03;17.00;96.40
30572;DHT22;17348;50.948;10.696;2023-05-18T15:06:06;16.90;96.50
30572;DHT22;17348;50.948;10.696;2023-05-18T15:09:08;16.90;95.30
30572;DHT22;17348;50.948;10.696;2023-05-18T15:12:10;16.80;95.10
30572;DHT22;17348;50.948;10.696;2023-05-18T15:15:14;16.80;95.20
30572;DHT22;17348;50.948;10.696;2023-05-18T15:18:17;16.90;94.00
30572;DHT22;17348;50.948;10.696;2023-05-18T15:21:19;16.90;95.30
30572;DHT22;17348;50.948;10.696;2023-05-18T15:24:21;17.10;95.70
30572;DHT22;17348;50.948;10.696;2023-05-18T15:27:24;17.10;96.00
30572;DHT22;17348;50.948;10.696;2023-05-18T15:30:28;17.30;95.70
30572;DHT22;17348;50.948;10.696;2023-05-18T15:33:31;17.10;95.30
30572;DHT22;17348;50.948;10.696;2023-05-18T15:36:35;17.00;95.60
30572;DHT22;17348;50.948;10.696;2023-05-18T15:39:38;16.90;95.70
30572;DHT22;17348;50.948;10.696;2023-05-18T15:42:40;16.90;96.00
30572;DHT22;17348;50.948;10.696;2023-05-18T15:45:44;16.80;96.30
30572;DHT22;17348;50.948;10.696;2023-05-18T15:48:46;16.80;96.40
30572;DHT22;17348;50.948;10.696;2023-05-18T15:51:49;16.80;95.90
30572;DHT22;17348;50.948;10.696;2023-05-18T15:54:51;16.90;95.90
30572;DHT22;17348;50.948;10.696;2023-05-18T15:57:53;16.90;95.90
30572;DHT22;17348;50.948;10.696;2023-05-18T16:00:57;16.90;96.30
30572;DHT22;17348;50.948;10.696;2023-05-18T16:03:59;17.00;96.20
30572;DHT22;17348;50.948;10.696;2023-05-18T16:07:02;17.10;96.10
30572;DHT22;17348;50.948;10.696;2023-05-18T16:10:06;17.10;96.60
30572;DHT22;17348;50.948;10.696;2023-05-18T16:13:08;17.10;97.20
30572;DHT22;17348;50.948;10.696;2023-05-18T16:16:12;17.00;95.60
30572;DHT22;17348;50.948;10.696;2023-05-18T16:19:14;17.00;95.90
30572;DHT22;17348;50.948;10.696;2023-05-18T16:22:18;16.90;95.80
30572;DHT22;17348;50.948;10.696;2023-05-18T16:25:20;16.90;95.90
30572;DHT22;17348;50.948;10.696;2023-05-18T16:28:23;16.80;95.60
30572;DHT22;17348;50.948;10.696;2023-05-18T16:31:27;16.80;95.50
30572;DHT22;17348;50.948;10.696;2023-05-18T16:34:29;16.70;96.10
30572;DHT22;17348;50.948;10.696;2023-05-18T16:37:31;16.70;96.00
30572;DHT22;17348;50.948;10.696;2023-05-18T16:40:34;16.60;96.10
30572;DHT22;17348;50.948;10.696;2023-05-18T16:43:36;16.50;95.90
30572;DHT22;17348;50.948;10.696;2023-05-18T16:46:40;16.60;95.80
30572;DHT22;17348;50.948;10.696;2023-05-18T16:49:42;16.50;96.20
30572;DHT22;17348;50.948;10.696;2023-05-18T16:52:45;16.40;96.50
30572;DHT22;17348;50.948;10.696;2023-05-18T16:55:48;16.30;96.80
30572;DHT22;17348;50.948;10.696;2023-05-18T16:58:50;16.30;97.50
30572;DHT22;17348;50.948;10.696;2023-05-18T17:01:55;16.20;97.30
30572;DHT22;17348;50.948;10.696;2023-05-18T17:04:57;16.10;96.80
30572;DHT22;17348;50.948;10.696;2023-05-18T17:08:02;16.00;96.80
30572;DHT22;17348;50.948;10.696;2023-05-18T17:11:04;15.90;97.20
30572;DHT22;17348;50.948;10.696;2023-05-18T17:14:06;16.00;97.60
30572;DHT22;17348;50.948;10.696;2023-05-18T17:17:10;16.00;97.50
30572;DHT22;17348;50.948;10.696;2023-05-18T17:20:12;16.10;97.70
30572;DHT22;17348;50.948;10.696;2023-05-18T17:23:15;16.10;97.40
30572;DHT22;17348;50.948;10.696;2023-05-18T17:26:18;16.10;97.30
30572;DHT22;17348;50.948;10.696;2023-05-18T17:29:21;15.90;97.50
30572;DHT22;17348;50.948;10.696;2023-05-18T17:32:25;15.90;97.70
30572;DHT22;17348;50.948;10.696;2023-05-18T17:35:27;15.80;98.10
30572;DHT22;17348;50.948;10.696;2023-05-18T17:38:30;15.70;98.10
30572;DHT22;17348;50.948;10.696;2023-05-18T17:41:32;15.70;97.90
30572;DHT22;17348;50.948;10.696;2023-05-18T17:44:35;15.50;97.60
30572;DHT22;17348;50.948;10.696;2023-05-18T17:47:39;15.40;97.90
30572;DHT22;17348;50.948;10.696;2023-05-18T17:50:42;15.30;98.40
30572;DHT22;17348;50.948;10.696;2023-05-18T17:53:45;15.20;99.00
30572;DHT22;17348;50.948;10.696;2023-05-18T17:56:47;15.00;99.20
30572;DHT22;17348;50.948;10.696;2023-05-18T17:59:50;15.00;99.60
30572;DHT22;17348;50.948;10.696;2023-05-18T18:02:53;14.90;99.70
30572;DHT22;17348;50.948;10.696;2023-05-18T18:05:56;14.80;99.90
30572;DHT22;17348;50.948;10.696;2023-05-18T18:08:58;14.80;99.90
30572;DHT22;17348;50.948;10.696;2023-05-18T18:12:01;14.70;99.90
30572;DHT22;17348;50.948;10.696;2023-05-18T18:15:09;14.70;99.90
30572;DHT22;17348;50.948;10.696;2023-05-18T18:18:13;14.60;99.90
30572;DHT22;17348;50.948;10.696;2023-05-18T18:21:16;14.50;99.90
30572;DHT22;17348;50.948;10.696;2023-05-18T18:24:19;14.50;99.90
30572;DHT22;17348;50.948;10.696;2023-05-18T18:27:23;14.50;99.90
30572;DHT22;17348;50.948;10.696;2023-05-18T18:30:25;14.40;99.90
30572;DHT22;17348;50.948;10.696;2023-05-18T18:33:29;14.30;99.90
30572;DHT22;17348;50.948;10.696;2023-05-18T18:36:32;14.30;99.90
30572;DHT22;17348;50.948;10.696;2023-05-18T18:39:35;14.20;99.90
30572;DHT22;17348;50.948;10.696;2023-05-18T18:42:37;14.10;99.90
30572;DHT22;17348;50.948;10.696;2023-05-18T18:45:39;14.00;99.90
30572;DHT22;17348;50.948;10.696;2023-05-18T18:48:43;14.00;99.90
30572;DHT22;17348;50.948;10.696;2023-05-18T18:51:46;13.90;99.90
30572;DHT22;17348;50.948;10.696;2023-05-18T18:54:49;13.80;99.90
30572;DHT22;17348;50.948;10.696;2023-05-18T18:57:51;13.70;99.90
30572;DHT22;17348;50.948;10.696;2023-05-18T19:00:55;13.70;99.90
30572;DHT22;17348;50.948;10.696;2023-05-18T19:03:59;13.70;99.90
30572;DHT22;17348;50.948;10.696;2023-05-18T19:07:02;13.60;99.90
30572;DHT22;17348;50.948;10.696;2023-05-18T19:10:06;13.50;99.90
30572;DHT22;17348;50.948;10.696;2023-05-18T19:13:10;13.50;99.90
30572;DHT22;17348;50.948;10.696;2023-05-18T19:16:13;13.40;99.90
30572;DHT22;17348;50.948;10.696;2023-05-18T19:19:18;13.40;99.90